sensor_id;sensor_type;location;lat;lon;timestamp;P1;durP1;ratioP1;P2;durP2;ratioP2
74512;SDS011;62992;52.052;8.550;2023-05-02T00:00:46;2.88;;;2.60;;
74512;SDS011;62992;52.052;8.550;2023-05-02T00:03:30;3.38;;;2.50;;
74512;SDS011;62992;52.052;8.550;2023-05-02T00:06:15;2.97;;;2.40;;
74512;SDS011;62992;52.052;8.550;2023-05-02T00:08:59;2.83;;;2.08;;
74512;SDS011;62992;52.052;8.550;2023-05-02T00:11:43;3.05;;;2.22;;
74512;SDS011;62992;52.052;8.550;2023-05-02T00:14:27;2.50;;;2.08;;
74512;SDS011;62992;52.052;8.550;2023-05-02T00:17:18;4.30;;;2.13;;
74512;SDS011;62992;52.052;8.550;2023-05-02T00:20:02;2.50;;;2.03;;
74512;SDS011;62992;52.052;8.550;2023-05-02T00:22:47;4.18;;;2.78;;
74512;SDS011;62992;52.052;8.550;2023-05-02T00:25:32;3.45;;;2.35;;
74512;SDS011;62992;52.052;8.550;2023-05-02T00:28:16;2.88;;;2.35;;
74512;SDS011;62992;52.052;8.550;2023-05-02T00:30:59;4.47;;;2.50;;
74512;SDS011;62992;52.052;8.550;2023-05-02T00:33:43;2.63;;;2.40;;
74512;SDS011;62992;52.052;8.550;2023-05-02T00:36:27;3.40;;;2.75;;
74512;SDS011;62992;52.052;8.550;2023-05-02T00:39:11;3.53;;;2.50;;
74512;SDS011;62992;52.052;8.550;2023-05-02T00:41:59;3.80;;;2.45;;
74512;SDS011;62992;52.052;8.550;2023-05-02T00:44:43;4.43;;;2.65;;
74512;SDS011;62992;52.052;8.550;2023-05-02T00:47:28;3.30;;;2.30;;
74512;SDS011;62992;52.052;8.550;2023-05-02T00:50:13;2.75;;;2.30;;
74512;SDS011;62992;52.052;8.550;2023-05-02T00:52:58;2.78;;;2.35;;
74512;SDS011;62992;52.052;8.550;2023-05-02T00:58:27;6.30;;;3.50;;
74512;SDS011;62992;52.052;8.550;2023-05-02T01:01:15;4.35;;;3.35;;
74512;SDS011;62992;52.052;8.550;2023-05-02T01:13:18;8.02;;;5.97;;
74512;SDS011;62992;52.052;8.550;2023-05-02T01:16:05;8.80;;;5.65;;
74512;SDS011;62992;52.052;8.550;2023-05-02T01:18:51;11.50;;;6.93;;
74512;SDS011;62992;52.052;8.550;2023-05-02T01:21:36;13.07;;;7.15;;
74512;SDS011;62992;52.052;8.550;2023-05-02T01:24:25;13.15;;;7.18;;
74512;SDS011;62992;52.052;8.550;2023-05-02T01:30:21;16.13;;;8.48;;
74512;SDS011;62992;52.052;8.550;2023-05-02T01:33:10;16.48;;;8.85;;
74512;SDS011;62992;52.052;8.550;2023-05-02T01:35:56;13.73;;;8.70;;
74512;SDS011;62992;52.052;8.550;2023-05-02T01:38:41;17.08;;;10.32;;
74512;SDS011;62992;52.052;8.550;2023-05-02T01:41:28;15.20;;;9.75;;
74512;SDS011;62992;52.052;8.550;2023-05-02T01:44:14;15.55;;;9.18;;
74512;SDS011;62992;52.052;8.550;2023-05-02T01:46:59;15.82;;;10.25;;
74512;SDS011;62992;52.052;8.550;2023-05-02T01:49:47;17.52;;;10.68;;
74512;SDS011;62992;52.052;8.550;2023-05-02T01:52:32;15.90;;;9.95;;
74512;SDS011;62992;52.052;8.550;2023-05-02T01:55:16;16.73;;;10.05;;
74512;SDS011;62992;52.052;8.550;2023-05-02T01:58:01;18.33;;;10.07;;
74512;SDS011;62992;52.052;8.550;2023-05-02T02:00:47;16.70;;;9.10;;
74512;SDS011;62992;52.052;8.550;2023-05-02T02:03:32;15.75;;;9.85;;
74512;SDS011;62992;52.052;8.550;2023-05-02T02:06:16;16.45;;;9.48;;
74512;SDS011;62992;52.052;8.550;2023-05-02T02:09:03;18.25;;;9.55;;
74512;SDS011;62992;52.052;8.550;2023-05-02T02:11:51;19.42;;;10.52;;
74512;SDS011;62992;52.052;8.550;2023-05-02T02:14:41;16.40;;;10.02;;
74512;SDS011;62992;52.052;8.550;2023-05-02T02:17:35;17.42;;;8.60;;
74512;SDS011;62992;52.052;8.550;2023-05-02T02:20:24;15.27;;;9.40;;
74512;SDS011;62992;52.052;8.550;2023-05-02T02:23:11;14.13;;;7.32;;
74512;SDS011;62992;52.052;8.550;2023-05-02T02:25:57;16.13;;;8.32;;
74512;SDS011;62992;52.052;8.550;2023-05-02T02:31:31;12.75;;;6.82;;
74512;SDS011;62992;52.052;8.550;2023-05-02T02:34:16;14.57;;;7.97;;
74512;SDS011;62992;52.052;8.550;2023-05-02T02:37:06;16.35;;;7.38;;
74512;SDS011;62992;52.052;8.550;2023-05-02T02:46:10;13.55;;;6.72;;
74512;SDS011;62992;52.052;8.550;2023-05-02T03:01:47;12.85;;;6.82;;
74512;SDS011;62992;52.052;8.550;2023-05-02T03:04:42;13.40;;;7.13;;
74512;SDS011;62992;52.052;8.550;2023-05-02T03:07:28;15.55;;;7.65;;
74512;SDS011;62992;52.052;8.550;2023-05-02T03:10:13;15.95;;;8.32;;
74512;SDS011;62992;52.052;8.550;2023-05-02T03:12:57;14.05;;;7.75;;
74512;SDS011;62992;52.052;8.550;2023-05-02T03:18:34;16.05;;;7.88;;
74512;SDS011;62992;52.052;8.550;2023-05-02T03:21:18;15.23;;;7.43;;
74512;SDS011;62992;52.052;8.550;2023-05-02T03:24:03;15.45;;;7.18;;
74512;SDS011;62992;52.052;8.550;2023-05-02T03:26:47;16.33;;;6.53;;
74512;SDS011;62992;52.052;8.550;2023-05-02T03:29:31;11.73;;;6.97;;
74512;SDS011;62992;52.052;8.550;2023-05-02T03:32:15;14.00;;;6.95;;
74512;SDS011;62992;52.052;8.550;2023-05-02T03:35:00;17.02;;;7.03;;
74512;SDS011;62992;52.052;8.550;2023-05-02T03:37:44;12.27;;;7.10;;
74512;SDS011;62992;52.052;8.550;2023-05-02T03:40:28;14.35;;;7.22;;
74512;SDS011;62992;52.052;8.550;2023-05-02T03:43:13;14.75;;;8.07;;
74512;SDS011;62992;52.052;8.550;2023-05-02T03:46:03;13.85;;;6.70;;
74512;SDS011;62992;52.052;8.550;2023-05-02T03:48:50;12.35;;;7.05;;
74512;SDS011;62992;52.052;8.550;2023-05-02T03:51:34;14.45;;;7.70;;
74512;SDS011;62992;52.052;8.550;2023-05-02T03:54:18;14.85;;;6.32;;
74512;SDS011;62992;52.052;8.550;2023-05-02T03:57:02;13.50;;;7.30;;
74512;SDS011;62992;52.052;8.550;2023-05-02T03:59:47;14.40;;;7.00;;
74512;SDS011;62992;52.052;8.550;2023-05-02T04:02:31;15.15;;;7.05;;
74512;SDS011;62992;52.052;8.550;2023-05-02T04:05:15;15.60;;;7.93;;
74512;SDS011;62992;52.052;8.550;2023-05-02T04:08:00;14.27;;;7.72;;
74512;SDS011;62992;52.052;8.550;2023-05-02T04:10:45;13.68;;;7.47;;
74512;SDS011;62992;52.052;8.550;2023-05-02T04:13:30;15.00;;;7.70;;
74512;SDS011;62992;52.052;8.550;2023-05-02T04:16:14;15.60;;;7.53;;
74512;SDS011;62992;52.052;8.550;2023-05-02T04:18:58;14.00;;;8.48;;
74512;SDS011;62992;52.052;8.550;2023-05-02T04:21:43;14.93;;;7.28;;
74512;SDS011;62992;52.052;8.550;2023-05-02T04:24:28;12.98;;;6.53;;
74512;SDS011;62992;52.052;8.550;2023-05-02T04:27:11;13.48;;;6.97;;
74512;SDS011;62992;52.052;8.550;2023-05-02T04:29:55;11.90;;;7.20;;
74512;SDS011;62992;52.052;8.550;2023-05-02T04:32:39;14.40;;;7.70;;
74512;SDS011;62992;52.052;8.550;2023-05-02T04:35:24;14.85;;;7.07;;
74512;SDS011;62992;52.052;8.550;2023-05-02T04:38:08;13.60;;;7.38;;
74512;SDS011;62992;52.052;8.550;2023-05-02T04:40:52;12.20;;;7.00;;
74512;SDS011;62992;52.052;8.550;2023-05-02T04:43:37;13.82;;;7.18;;
74512;SDS011;62992;52.052;8.550;2023-05-02T04:46:21;13.43;;;7.30;;
74512;SDS011;62992;52.052;8.550;2023-05-02T04:49:05;14.80;;;7.68;;
74512;SDS011;62992;52.052;8.550;2023-05-02T04:51:49;17.63;;;8.77;;
74512;SDS011;62992;52.052;8.550;2023-05-02T04:54:35;12.23;;;6.55;;
74512;SDS011;62992;52.052;8.550;2023-05-02T04:57:19;13.30;;;6.78;;
74512;SDS011;62992;52.052;8.550;2023-05-02T05:00:04;13.65;;;6.05;;
74512;SDS011;62992;52.052;8.550;2023-05-02T05:02:49;11.93;;;6.87;;
74512;SDS011;62992;52.052;8.550;2023-05-02T05:05:33;12.00;;;6.00;;
74512;SDS011;62992;52.052;8.550;2023-05-02T05:08:17;13.77;;;6.68;;
74512;SDS011;62992;52.052;8.550;2023-05-02T05:11:01;11.23;;;5.15;;
74512;SDS011;62992;52.052;8.550;2023-05-02T05:13:47;11.27;;;5.18;;
74512;SDS011;62992;52.052;8.550;2023-05-02T05:16:33;7.80;;;4.65;;
74512;SDS011;62992;52.052;8.550;2023-05-02T05:19:17;8.05;;;3.67;;
74512;SDS011;62992;52.052;8.550;2023-05-02T05:22:01;6.55;;;3.53;;
74512;SDS011;62992;52.052;8.550;2023-05-02T05:24:52;5.95;;;3.25;;
74512;SDS011;62992;52.052;8.550;2023-05-02T05:27:36;3.58;;;2.42;;
74512;SDS011;62992;52.052;8.550;2023-05-02T05:30:21;4.35;;;2.70;;
74512;SDS011;62992;52.052;8.550;2023-05-02T05:33:05;3.70;;;2.55;;
74512;SDS011;62992;52.052;8.550;2023-05-02T05:35:49;2.88;;;1.80;;
74512;SDS011;62992;52.052;8.550;2023-05-02T05:38:33;3.05;;;1.70;;
74512;SDS011;62992;52.052;8.550;2023-05-02T05:41:18;2.10;;;1.38;;
74512;SDS011;62992;52.052;8.550;2023-05-02T05:44:02;2.42;;;1.80;;
74512;SDS011;62992;52.052;8.550;2023-05-02T05:46:47;2.35;;;1.77;;
74512;SDS011;62992;52.052;8.550;2023-05-02T05:49:31;2.47;;;1.70;;
74512;SDS011;62992;52.052;8.550;2023-05-02T05:52:15;1.85;;;1.30;;
74512;SDS011;62992;52.052;8.550;2023-05-02T05:54:59;2.53;;;1.50;;
74512;SDS011;62992;52.052;8.550;2023-05-02T05:57:43;3.95;;;2.25;;
74512;SDS011;62992;52.052;8.550;2023-05-02T06:00:27;3.65;;;1.92;;
74512;SDS011;62992;52.052;8.550;2023-05-02T06:03:11;3.25;;;1.75;;
74512;SDS011;62992;52.052;8.550;2023-05-02T06:05:55;3.58;;;1.70;;
74512;SDS011;62992;52.052;8.550;2023-05-02T06:08:39;2.13;;;1.48;;
74512;SDS011;62992;52.052;8.550;2023-05-02T06:11:23;2.53;;;1.65;;
74512;SDS011;62992;52.052;8.550;2023-05-02T06:14:08;2.67;;;1.75;;
74512;SDS011;62992;52.052;8.550;2023-05-02T06:16:53;3.05;;;2.05;;
74512;SDS011;62992;52.052;8.550;2023-05-02T06:19:37;3.17;;;1.90;;
74512;SDS011;62992;52.052;8.550;2023-05-02T06:22:21;2.33;;;1.48;;
74512;SDS011;62992;52.052;8.550;2023-05-02T06:25:05;2.58;;;1.67;;
74512;SDS011;62992;52.052;8.550;2023-05-02T06:27:50;2.15;;;1.60;;
74512;SDS011;62992;52.052;8.550;2023-05-02T06:30:34;3.08;;;1.67;;
74512;SDS011;62992;52.052;8.550;2023-05-02T06:33:18;4.85;;;1.40;;
74512;SDS011;62992;52.052;8.550;2023-05-02T06:36:02;2.42;;;1.38;;
74512;SDS011;62992;52.052;8.550;2023-05-02T06:38:46;2.00;;;1.60;;
74512;SDS011;62992;52.052;8.550;2023-05-02T06:41:31;2.45;;;1.50;;
74512;SDS011;62992;52.052;8.550;2023-05-02T06:44:15;1.63;;;1.42;;
74512;SDS011;62992;52.052;8.550;2023-05-02T06:46:59;2.42;;;1.33;;
74512;SDS011;62992;52.052;8.550;2023-05-02T06:49:43;2.65;;;1.50;;
74512;SDS011;62992;52.052;8.550;2023-05-02T06:52:27;2.55;;;1.50;;
74512;SDS011;62992;52.052;8.550;2023-05-02T06:55:11;2.22;;;1.40;;
74512;SDS011;62992;52.052;8.550;2023-05-02T06:57:55;4.22;;;1.45;;
74512;SDS011;62992;52.052;8.550;2023-05-02T07:00:39;2.97;;;1.48;;
74512;SDS011;62992;52.052;8.550;2023-05-02T07:03:24;1.30;;;0.80;;
74512;SDS011;62992;52.052;8.550;2023-05-02T07:06:09;2.53;;;0.95;;
74512;SDS011;62992;52.052;8.550;2023-05-02T07:08:53;3.75;;;1.30;;
74512;SDS011;62992;52.052;8.550;2023-05-02T07:11:37;2.95;;;1.42;;
74512;SDS011;62992;52.052;8.550;2023-05-02T07:14:21;5.00;;;1.20;;
74512;SDS011;62992;52.052;8.550;2023-05-02T07:17:05;2.92;;;1.33;;
74512;SDS011;62992;52.052;8.550;2023-05-02T07:19:49;2.00;;;0.93;;
74512;SDS011;62992;52.052;8.550;2023-05-02T07:22:34;3.25;;;1.73;;
74512;SDS011;62992;52.052;8.550;2023-05-02T07:25:18;2.03;;;1.35;;
74512;SDS011;62992;52.052;8.550;2023-05-02T07:28:02;3.58;;;1.38;;
74512;SDS011;62992;52.052;8.550;2023-05-02T07:30:46;5.68;;;1.60;;
74512;SDS011;62992;52.052;8.550;2023-05-02T07:33:30;3.42;;;1.25;;
74512;SDS011;62992;52.052;8.550;2023-05-02T07:36:14;3.08;;;1.70;;
74512;SDS011;62992;52.052;8.550;2023-05-02T07:38:58;1.98;;;1.48;;
74512;SDS011;62992;52.052;8.550;2023-05-02T07:41:42;4.43;;;1.73;;
74512;SDS011;62992;52.052;8.550;2023-05-02T07:44:26;4.22;;;2.15;;
74512;SDS011;62992;52.052;8.550;2023-05-02T07:47:10;5.00;;;1.75;;
74512;SDS011;62992;52.052;8.550;2023-05-02T07:49:54;4.80;;;2.17;;
74512;SDS011;62992;52.052;8.550;2023-05-02T07:52:39;5.28;;;2.20;;
74512;SDS011;62992;52.052;8.550;2023-05-02T07:55:23;3.03;;;1.75;;
74512;SDS011;62992;52.052;8.550;2023-05-02T07:58:09;3.95;;;1.80;;
74512;SDS011;62992;52.052;8.550;2023-05-02T08:00:54;3.53;;;1.83;;
74512;SDS011;62992;52.052;8.550;2023-05-02T08:03:38;4.93;;;1.60;;
74512;SDS011;62992;52.052;8.550;2023-05-02T08:06:22;3.70;;;2.03;;
74512;SDS011;62992;52.052;8.550;2023-05-02T08:09:07;7.10;;;2.00;;
74512;SDS011;62992;52.052;8.550;2023-05-02T08:11:51;3.63;;;1.50;;
74512;SDS011;62992;52.052;8.550;2023-05-02T08:14:36;6.97;;;2.03;;
74512;SDS011;62992;52.052;8.550;2023-05-02T08:17:20;2.40;;;1.80;;
74512;SDS011;62992;52.052;8.550;2023-05-02T08:20:05;2.78;;;1.95;;
74512;SDS011;62992;52.052;8.550;2023-05-02T08:22:50;6.40;;;2.10;;
74512;SDS011;62992;52.052;8.550;2023-05-02T08:25:34;5.82;;;2.00;;
74512;SDS011;62992;52.052;8.550;2023-05-02T08:28:18;2.80;;;1.63;;
74512;SDS011;62992;52.052;8.550;2023-05-02T08:31:02;2.30;;;1.30;;
74512;SDS011;62992;52.052;8.550;2023-05-02T08:33:46;2.83;;;1.52;;
74512;SDS011;62992;52.052;8.550;2023-05-02T08:36:31;4.28;;;1.30;;
74512;SDS011;62992;52.052;8.550;2023-05-02T08:39:15;3.67;;;1.83;;
74512;SDS011;62992;52.052;8.550;2023-05-02T08:42:00;6.18;;;1.88;;
74512;SDS011;62992;52.052;8.550;2023-05-02T08:44:45;6.13;;;1.58;;
74512;SDS011;62992;52.052;8.550;2023-05-02T08:47:30;6.20;;;1.65;;
74512;SDS011;62992;52.052;8.550;2023-05-02T08:50:15;4.13;;;1.30;;
74512;SDS011;62992;52.052;8.550;2023-05-02T08:53:03;3.22;;;1.13;;
74512;SDS011;62992;52.052;8.550;2023-05-02T08:55:49;4.97;;;1.33;;
74512;SDS011;62992;52.052;8.550;2023-05-02T08:58:34;4.28;;;1.42;;
74512;SDS011;62992;52.052;8.550;2023-05-02T09:04:06;5.93;;;1.42;;
74512;SDS011;62992;52.052;8.550;2023-05-02T09:06:50;2.90;;;1.30;;
74512;SDS011;62992;52.052;8.550;2023-05-02T09:09:35;3.30;;;1.40;;
74512;SDS011;62992;52.052;8.550;2023-05-02T09:12:23;2.65;;;1.35;;
74512;SDS011;62992;52.052;8.550;2023-05-02T09:15:15;4.75;;;1.60;;
74512;SDS011;62992;52.052;8.550;2023-05-02T09:18:01;2.15;;;1.20;;
74512;SDS011;62992;52.052;8.550;2023-05-02T09:20:45;7.68;;;2.10;;
74512;SDS011;62992;52.052;8.550;2023-05-02T09:26:20;1.08;;;0.85;;
74512;SDS011;62992;52.052;8.550;2023-05-02T09:29:09;5.82;;;1.20;;
74512;SDS011;62992;52.052;8.550;2023-05-02T09:31:54;1.17;;;0.75;;
74512;SDS011;62992;52.052;8.550;2023-05-02T09:34:38;7.60;;;1.83;;
74512;SDS011;62992;52.052;8.550;2023-05-02T09:37:35;1.50;;;1.30;;
74512;SDS011;62992;52.052;8.550;2023-05-02T09:43:22;2.47;;;1.02;;
74512;SDS011;62992;52.052;8.550;2023-05-02T09:46:07;3.67;;;1.10;;
74512;SDS011;62992;52.052;8.550;2023-05-02T09:48:56;7.25;;;1.65;;
74512;SDS011;62992;52.052;8.550;2023-05-02T09:51:40;3.00;;;0.80;;
74512;SDS011;62992;52.052;8.550;2023-05-02T09:54:35;3.17;;;1.25;;
74512;SDS011;62992;52.052;8.550;2023-05-02T09:57:20;1.67;;;0.73;;
74512;SDS011;62992;52.052;8.550;2023-05-02T10:00:05;1.98;;;1.10;;
74512;SDS011;62992;52.052;8.550;2023-05-02T10:02:51;2.28;;;0.90;;
74512;SDS011;62992;52.052;8.550;2023-05-02T10:05:36;1.73;;;1.02;;
74512;SDS011;62992;52.052;8.550;2023-05-02T10:11:10;3.35;;;1.20;;
74512;SDS011;62992;52.052;8.550;2023-05-02T10:13:55;3.25;;;0.95;;
74512;SDS011;62992;52.052;8.550;2023-05-02T10:17:08;7.85;;;1.42;;
74512;SDS011;62992;52.052;8.550;2023-05-02T10:20:04;3.55;;;1.60;;
74512;SDS011;62992;52.052;8.550;2023-05-02T10:22:49;4.70;;;1.50;;
74512;SDS011;62992;52.052;8.550;2023-05-02T10:25:35;5.03;;;1.08;;
74512;SDS011;62992;52.052;8.550;2023-05-02T10:28:20;2.47;;;1.13;;
74512;SDS011;62992;52.052;8.550;2023-05-02T10:31:04;3.65;;;1.23;;
74512;SDS011;62992;52.052;8.550;2023-05-02T10:33:52;5.47;;;1.30;;
74512;SDS011;62992;52.052;8.550;2023-05-02T10:39:23;4.32;;;1.58;;
74512;SDS011;62992;52.052;8.550;2023-05-02T10:42:07;4.20;;;1.33;;
74512;SDS011;62992;52.052;8.550;2023-05-02T10:44:52;4.78;;;1.80;;
74512;SDS011;62992;52.052;8.550;2023-05-02T10:47:36;4.72;;;1.23;;
74512;SDS011;62992;52.052;8.550;2023-05-02T10:50:20;1.40;;;1.00;;
74512;SDS011;62992;52.052;8.550;2023-05-02T10:56:13;3.60;;;1.27;;
74512;SDS011;62992;52.052;8.550;2023-05-02T10:59:26;2.33;;;1.60;;
74512;SDS011;62992;52.052;8.550;2023-05-02T11:05:11;3.92;;;1.33;;
74512;SDS011;62992;52.052;8.550;2023-05-02T11:08:29;4.15;;;1.55;;
74512;SDS011;62992;52.052;8.550;2023-05-02T11:11:48;5.65;;;1.35;;
74512;SDS011;62992;52.052;8.550;2023-05-02T11:17:13;2.55;;;1.40;;
74512;SDS011;62992;52.052;8.550;2023-05-02T11:22:48;6.45;;;2.05;;
74512;SDS011;62992;52.052;8.550;2023-05-02T11:25:34;4.05;;;1.63;;
74512;SDS011;62992;52.052;8.550;2023-05-02T11:34:10;3.30;;;1.10;;
74512;SDS011;62992;52.052;8.550;2023-05-02T11:36:54;4.82;;;1.30;;
74512;SDS011;62992;52.052;8.550;2023-05-02T11:39:38;3.65;;;1.58;;
74512;SDS011;62992;52.052;8.550;2023-05-02T11:42:30;4.10;;;1.85;;
74512;SDS011;62992;52.052;8.550;2023-05-02T11:45:15;7.32;;;1.70;;
74512;SDS011;62992;52.052;8.550;2023-05-02T11:47:59;3.50;;;1.33;;
74512;SDS011;62992;52.052;8.550;2023-05-02T11:50:48;4.93;;;1.25;;
74512;SDS011;62992;52.052;8.550;2023-05-02T11:53:38;4.07;;;1.35;;
74512;SDS011;62992;52.052;8.550;2023-05-02T11:56:23;4.63;;;1.70;;
74512;SDS011;62992;52.052;8.550;2023-05-02T11:59:09;2.13;;;1.10;;
74512;SDS011;62992;52.052;8.550;2023-05-02T12:01:53;2.75;;;0.95;;
74512;SDS011;62992;52.052;8.550;2023-05-02T12:04:42;2.65;;;1.25;;
74512;SDS011;62992;52.052;8.550;2023-05-02T12:07:36;2.78;;;1.00;;
74512;SDS011;62992;52.052;8.550;2023-05-02T12:10:20;1.77;;;0.82;;
74512;SDS011;62992;52.052;8.550;2023-05-02T12:13:04;2.15;;;1.05;;
74512;SDS011;62992;52.052;8.550;2023-05-02T12:15:49;6.15;;;1.27;;
74512;SDS011;62992;52.052;8.550;2023-05-02T12:18:36;1.75;;;1.08;;
74512;SDS011;62992;52.052;8.550;2023-05-02T12:21:20;2.63;;;1.40;;
74512;SDS011;62992;52.052;8.550;2023-05-02T12:24:04;2.75;;;1.50;;
74512;SDS011;62992;52.052;8.550;2023-05-02T12:26:48;4.75;;;0.88;;
74512;SDS011;62992;52.052;8.550;2023-05-02T12:29:37;4.43;;;2.17;;
74512;SDS011;62992;52.052;8.550;2023-05-02T12:32:26;3.90;;;1.38;;
74512;SDS011;62992;52.052;8.550;2023-05-02T12:35:20;4.60;;;1.35;;
74512;SDS011;62992;52.052;8.550;2023-05-02T12:38:09;2.67;;;1.30;;
74512;SDS011;62992;52.052;8.550;2023-05-02T12:40:58;3.38;;;1.50;;
74512;SDS011;62992;52.052;8.550;2023-05-02T12:43:48;4.78;;;1.80;;
74512;SDS011;62992;52.052;8.550;2023-05-02T12:46:33;3.13;;;1.40;;
74512;SDS011;62992;52.052;8.550;2023-05-02T12:49:18;2.50;;;1.20;;
74512;SDS011;62992;52.052;8.550;2023-05-02T12:52:03;4.20;;;1.30;;
74512;SDS011;62992;52.052;8.550;2023-05-02T12:54:47;2.50;;;1.35;;
74512;SDS011;62992;52.052;8.550;2023-05-02T12:57:31;5.28;;;1.40;;
74512;SDS011;62992;52.052;8.550;2023-05-02T13:00:15;2.08;;;1.35;;
74512;SDS011;62992;52.052;8.550;2023-05-02T13:03:00;5.30;;;1.25;;
74512;SDS011;62992;52.052;8.550;2023-05-02T13:05:45;2.42;;;1.30;;
74512;SDS011;62992;52.052;8.550;2023-05-02T13:08:30;5.05;;;1.80;;
74512;SDS011;62992;52.052;8.550;2023-05-02T13:14:00;1.90;;;1.40;;
74512;SDS011;62992;52.052;8.550;2023-05-02T13:16:48;5.38;;;1.80;;
74512;SDS011;62992;52.052;8.550;2023-05-02T13:19:32;2.15;;;1.05;;
74512;SDS011;62992;52.052;8.550;2023-05-02T13:22:16;3.25;;;1.40;;
74512;SDS011;62992;52.052;8.550;2023-05-02T13:25:01;3.97;;;1.27;;
74512;SDS011;62992;52.052;8.550;2023-05-02T13:27:45;4.93;;;2.10;;
74512;SDS011;62992;52.052;8.550;2023-05-02T13:30:29;4.00;;;1.60;;
74512;SDS011;62992;52.052;8.550;2023-05-02T13:33:13;5.25;;;1.63;;
74512;SDS011;62992;52.052;8.550;2023-05-02T13:35:57;5.15;;;1.70;;
74512;SDS011;62992;52.052;8.550;2023-05-02T13:38:42;2.80;;;1.35;;
74512;SDS011;62992;52.052;8.550;2023-05-02T13:41:26;3.83;;;1.70;;
74512;SDS011;62992;52.052;8.550;2023-05-02T13:44:10;3.10;;;1.75;;
74512;SDS011;62992;52.052;8.550;2023-05-02T13:46:55;2.90;;;1.70;;
74512;SDS011;62992;52.052;8.550;2023-05-02T13:49:39;2.47;;;1.35;;
74512;SDS011;62992;52.052;8.550;2023-05-02T13:52:24;3.47;;;2.08;;
74512;SDS011;62992;52.052;8.550;2023-05-02T13:55:08;5.45;;;1.80;;
74512;SDS011;62992;52.052;8.550;2023-05-02T13:57:52;3.85;;;1.90;;
74512;SDS011;62992;52.052;8.550;2023-05-02T14:00:36;3.05;;;1.55;;
74512;SDS011;62992;52.052;8.550;2023-05-02T14:03:20;3.72;;;1.58;;
74512;SDS011;62992;52.052;8.550;2023-05-02T14:06:05;2.42;;;1.60;;
74512;SDS011;62992;52.052;8.550;2023-05-02T14:08:50;4.40;;;1.70;;
74512;SDS011;62992;52.052;8.550;2023-05-02T14:11:34;3.90;;;1.58;;
74512;SDS011;62992;52.052;8.550;2023-05-02T14:14:18;5.88;;;1.80;;
74512;SDS011;62992;52.052;8.550;2023-05-02T14:17:03;3.30;;;1.67;;
74512;SDS011;62992;52.052;8.550;2023-05-02T14:19:47;5.00;;;1.80;;
74512;SDS011;62992;52.052;8.550;2023-05-02T14:22:32;2.92;;;1.77;;
74512;SDS011;62992;52.052;8.550;2023-05-02T14:25:16;2.47;;;1.65;;
74512;SDS011;62992;52.052;8.550;2023-05-02T14:28:03;2.13;;;1.50;;
74512;SDS011;62992;52.052;8.550;2023-05-02T14:30:48;2.22;;;1.70;;
74512;SDS011;62992;52.052;8.550;2023-05-02T14:33:32;4.20;;;1.70;;
74512;SDS011;62992;52.052;8.550;2023-05-02T14:36:16;4.70;;;1.50;;
74512;SDS011;62992;52.052;8.550;2023-05-02T14:39:01;1.98;;;1.23;;
74512;SDS011;62992;52.052;8.550;2023-05-02T14:41:45;1.73;;;1.30;;
74512;SDS011;62992;52.052;8.550;2023-05-02T14:44:29;2.33;;;1.50;;
74512;SDS011;62992;52.052;8.550;2023-05-02T14:47:13;3.55;;;1.48;;
74512;SDS011;62992;52.052;8.550;2023-05-02T14:49:58;2.90;;;1.60;;
74512;SDS011;62992;52.052;8.550;2023-05-02T14:52:42;1.83;;;1.08;;
74512;SDS011;62992;52.052;8.550;2023-05-02T14:55:28;1.98;;;1.60;;
74512;SDS011;62992;52.052;8.550;2023-05-02T14:58:12;2.40;;;1.42;;
74512;SDS011;62992;52.052;8.550;2023-05-02T15:01:03;4.80;;;1.73;;
74512;SDS011;62992;52.052;8.550;2023-05-02T15:03:47;1.55;;;1.25;;
74512;SDS011;62992;52.052;8.550;2023-05-02T15:06:32;3.40;;;1.58;;
74512;SDS011;62992;52.052;8.550;2023-05-02T15:09:17;2.72;;;1.30;;
74512;SDS011;62992;52.052;8.550;2023-05-02T15:12:01;2.78;;;1.63;;
74512;SDS011;62992;52.052;8.550;2023-05-02T15:14:45;1.98;;;1.25;;
74512;SDS011;62992;52.052;8.550;2023-05-02T15:17:30;2.53;;;1.48;;
74512;SDS011;62992;52.052;8.550;2023-05-02T15:20:14;3.88;;;1.90;;
74512;SDS011;62992;52.052;8.550;2023-05-02T15:22:58;4.13;;;1.92;;
74512;SDS011;62992;52.052;8.550;2023-05-02T15:25:46;2.17;;;1.50;;
74512;SDS011;62992;52.052;8.550;2023-05-02T15:28:30;3.30;;;1.40;;
74512;SDS011;62992;52.052;8.550;2023-05-02T15:31:14;4.53;;;1.50;;
74512;SDS011;62992;52.052;8.550;2023-05-02T15:33:58;2.60;;;1.20;;
74512;SDS011;62992;52.052;8.550;2023-05-02T15:36:42;2.45;;;1.40;;
74512;SDS011;62992;52.052;8.550;2023-05-02T15:39:26;3.53;;;1.30;;
74512;SDS011;62992;52.052;8.550;2023-05-02T15:42:11;2.88;;;1.48;;
74512;SDS011;62992;52.052;8.550;2023-05-02T15:44:55;2.05;;;1.58;;
74512;SDS011;62992;52.052;8.550;2023-05-02T15:47:40;2.75;;;1.40;;
74512;SDS011;62992;52.052;8.550;2023-05-02T15:50:24;1.90;;;1.27;;
74512;SDS011;62992;52.052;8.550;2023-05-02T15:53:08;4.18;;;1.60;;
74512;SDS011;62992;52.052;8.550;2023-05-02T15:55:52;2.78;;;1.25;;
74512;SDS011;62992;52.052;8.550;2023-05-02T15:58:36;1.98;;;1.50;;
74512;SDS011;62992;52.052;8.550;2023-05-02T16:01:21;2.13;;;1.58;;
74512;SDS011;62992;52.052;8.550;2023-05-02T16:04:06;3.30;;;1.47;;
74512;SDS011;62992;52.052;8.550;2023-05-02T16:06:52;2.80;;;1.48;;
74512;SDS011;62992;52.052;8.550;2023-05-02T16:09:36;3.92;;;1.50;;
74512;SDS011;62992;52.052;8.550;2023-05-02T16:12:21;2.33;;;1.40;;
74512;SDS011;62992;52.052;8.550;2023-05-02T16:15:06;3.20;;;1.45;;
74512;SDS011;62992;52.052;8.550;2023-05-02T16:17:51;2.33;;;1.30;;
74512;SDS011;62992;52.052;8.550;2023-05-02T16:20:35;1.38;;;1.13;;
74512;SDS011;62992;52.052;8.550;2023-05-02T16:23:21;2.75;;;1.13;;
74512;SDS011;62992;52.052;8.550;2023-05-02T16:26:06;1.73;;;1.30;;
74512;SDS011;62992;52.052;8.550;2023-05-02T16:28:50;1.65;;;0.98;;
74512;SDS011;62992;52.052;8.550;2023-05-02T16:31:34;3.90;;;1.90;;
74512;SDS011;62992;52.052;8.550;2023-05-02T16:34:19;1.95;;;1.13;;
74512;SDS011;62992;52.052;8.550;2023-05-02T16:37:03;3.83;;;0.90;;
74512;SDS011;62992;52.052;8.550;2023-05-02T16:39:47;2.95;;;1.00;;
74512;SDS011;62992;52.052;8.550;2023-05-02T16:42:31;1.42;;;0.95;;
74512;SDS011;62992;52.052;8.550;2023-05-02T16:45:16;2.03;;;0.80;;
74512;SDS011;62992;52.052;8.550;2023-05-02T16:48:00;2.13;;;1.10;;
74512;SDS011;62992;52.052;8.550;2023-05-02T16:50:44;1.38;;;0.85;;
74512;SDS011;62992;52.052;8.550;2023-05-02T16:53:28;2.20;;;1.10;;
74512;SDS011;62992;52.052;8.550;2023-05-02T16:56:13;1.05;;;0.80;;
74512;SDS011;62992;52.052;8.550;2023-05-02T16:58:58;2.13;;;0.82;;
74512;SDS011;62992;52.052;8.550;2023-05-02T17:01:42;0.80;;;0.60;;
74512;SDS011;62992;52.052;8.550;2023-05-02T17:04:26;2.40;;;0.65;;
74512;SDS011;62992;52.052;8.550;2023-05-02T17:07:10;0.80;;;0.70;;
74512;SDS011;62992;52.052;8.550;2023-05-02T17:09:54;2.90;;;0.90;;
74512;SDS011;62992;52.052;8.550;2023-05-02T17:12:38;2.08;;;0.82;;
74512;SDS011;62992;52.052;8.550;2023-05-02T17:15:23;1.13;;;0.82;;
74512;SDS011;62992;52.052;8.550;2023-05-02T17:18:08;1.63;;;0.70;;
74512;SDS011;62992;52.052;8.550;2023-05-02T17:20:52;0.70;;;0.50;;
74512;SDS011;62992;52.052;8.550;2023-05-02T17:23:37;0.93;;;0.70;;
74512;SDS011;62992;52.052;8.550;2023-05-02T17:26:22;0.95;;;0.70;;
74512;SDS011;62992;52.052;8.550;2023-05-02T17:29:06;1.90;;;0.80;;
74512;SDS011;62992;52.052;8.550;2023-05-02T17:31:50;1.85;;;0.65;;
74512;SDS011;62992;52.052;8.550;2023-05-02T17:34:34;1.98;;;1.00;;
74512;SDS011;62992;52.052;8.550;2023-05-02T17:37:19;1.10;;;0.88;;
74512;SDS011;62992;52.052;8.550;2023-05-02T17:40:03;0.77;;;0.77;;
74512;SDS011;62992;52.052;8.550;2023-05-02T17:42:48;2.45;;;0.90;;
74512;SDS011;62992;52.052;8.550;2023-05-02T17:45:33;2.72;;;0.93;;
74512;SDS011;62992;52.052;8.550;2023-05-02T17:48:18;1.40;;;1.00;;